sensor_id;sensor_type;location;lat;lon;timestamp;P1;durP1;ratioP1;P2;durP2;ratioP2
28174;SDS011;59417;44.788;10.334;2023-03-21T00:01:54;28.08;;;21.50;;
28174;SDS011;59417;44.788;10.334;2023-03-21T00:04:20;27.40;;;21.70;;
28174;SDS011;59417;44.788;10.334;2023-03-21T00:06:47;32.20;;;23.23;;
28174;SDS011;59417;44.788;10.334;2023-03-21T00:09:13;31.92;;;21.98;;
28174;SDS011;59417;44.788;10.334;2023-03-21T00:11:38;36.17;;;24.05;;
28174;SDS011;59417;44.788;10.334;2023-03-21T00:14:04;31.15;;;23.10;;
28174;SDS011;59417;44.788;10.334;2023-03-21T00:16:32;30.45;;;23.75;;
28174;SDS011;59417;44.788;10.334;2023-03-21T00:19:00;28.08;;;21.73;;
28174;SDS011;59417;44.788;10.334;2023-03-21T00:21:30;30.77;;;22.42;;
28174;SDS011;59417;44.788;10.334;2023-03-21T00:23:58;28.40;;;22.63;;
28174;SDS011;59417;44.788;10.334;2023-03-21T00:26:24;30.70;;;23.65;;
28174;SDS011;59417;44.788;10.334;2023-03-21T00:28:51;31.08;;;22.83;;
28174;SDS011;59417;44.788;10.334;2023-03-21T00:31:19;31.25;;;22.48;;
28174;SDS011;59417;44.788;10.334;2023-03-21T00:33:45;28.15;;;23.10;;
28174;SDS011;59417;44.788;10.334;2023-03-21T00:36:10;32.88;;;22.80;;
28174;SDS011;59417;44.788;10.334;2023-03-21T00:38:37;31.42;;;22.85;;
28174;SDS011;59417;44.788;10.334;2023-03-21T00:41:07;31.60;;;24.48;;
28174;SDS011;59417;44.788;10.334;2023-03-21T00:43:34;30.92;;;22.75;;
28174;SDS011;59417;44.788;10.334;2023-03-21T00:46:00;33.50;;;23.98;;
28174;SDS011;59417;44.788;10.334;2023-03-21T00:48:27;31.85;;;23.05;;
28174;SDS011;59417;44.788;10.334;2023-03-21T00:50:53;33.22;;;24.88;;
28174;SDS011;59417;44.788;10.334;2023-03-21T00:53:21;31.65;;;22.90;;
28174;SDS011;59417;44.788;10.334;2023-03-21T00:55:47;31.40;;;23.40;;
28174;SDS011;59417;44.788;10.334;2023-03-21T00:58:14;28.77;;;22.65;;
28174;SDS011;59417;44.788;10.334;2023-03-21T01:00:40;32.50;;;23.27;;
28174;SDS011;59417;44.788;10.334;2023-03-21T01:03:06;30.70;;;22.70;;
28174;SDS011;59417;44.788;10.334;2023-03-21T01:05:39;30.87;;;23.37;;
28174;SDS011;59417;44.788;10.334;2023-03-21T01:08:26;30.77;;;24.05;;
28174;SDS011;59417;44.788;10.334;2023-03-21T01:10:53;38.30;;;24.05;;
28174;SDS011;59417;44.788;10.334;2023-03-21T01:13:20;32.85;;;22.52;;
28174;SDS011;59417;44.788;10.334;2023-03-21T01:15:49;34.58;;;24.33;;
28174;SDS011;59417;44.788;10.334;2023-03-21T01:18:16;30.60;;;23.67;;
28174;SDS011;59417;44.788;10.334;2023-03-21T01:20:44;31.83;;;24.50;;
28174;SDS011;59417;44.788;10.334;2023-03-21T01:23:10;29.98;;;23.08;;
28174;SDS011;59417;44.788;10.334;2023-03-21T01:25:37;31.67;;;23.38;;
28174;SDS011;59417;44.788;10.334;2023-03-21T01:28:03;34.38;;;24.30;;
28174;SDS011;59417;44.788;10.334;2023-03-21T01:30:29;27.50;;;23.30;;
28174;SDS011;59417;44.788;10.334;2023-03-21T01:32:55;31.13;;;23.88;;
28174;SDS011;59417;44.788;10.334;2023-03-21T01:35:21;30.90;;;24.35;;
28174;SDS011;59417;44.788;10.334;2023-03-21T01:37:47;29.02;;;23.40;;
28174;SDS011;59417;44.788;10.334;2023-03-21T01:40:16;30.05;;;23.88;;
28174;SDS011;59417;44.788;10.334;2023-03-21T01:42:45;33.13;;;23.00;;
28174;SDS011;59417;44.788;10.334;2023-03-21T01:48:14;31.65;;;22.80;;
28174;SDS011;59417;44.788;10.334;2023-03-21T01:50:47;29.65;;;22.83;;
28174;SDS011;59417;44.788;10.334;2023-03-21T01:53:21;33.75;;;23.15;;
28174;SDS011;59417;44.788;10.334;2023-03-21T01:55:58;31.48;;;22.63;;
28174;SDS011;59417;44.788;10.334;2023-03-21T01:58:51;31.23;;;24.17;;
28174;SDS011;59417;44.788;10.334;2023-03-21T02:01:45;34.17;;;24.58;;
28174;SDS011;59417;44.788;10.334;2023-03-21T02:04:15;34.08;;;23.67;;
28174;SDS011;59417;44.788;10.334;2023-03-21T02:07:07;32.22;;;23.73;;
28174;SDS011;59417;44.788;10.334;2023-03-21T02:09:44;28.70;;;22.25;;
28174;SDS011;59417;44.788;10.334;2023-03-21T02:12:16;30.48;;;22.13;;
28174;SDS011;59417;44.788;10.334;2023-03-21T02:14:44;27.95;;;22.45;;
28174;SDS011;59417;44.788;10.334;2023-03-21T02:17:36;28.23;;;22.27;;
28174;SDS011;59417;44.788;10.334;2023-03-21T02:23:34;28.52;;;22.92;;
28174;SDS011;59417;44.788;10.334;2023-03-21T02:39:40;28.27;;;22.38;;
28174;SDS011;59417;44.788;10.334;2023-03-21T02:45:18;30.40;;;21.92;;
28174;SDS011;59417;44.788;10.334;2023-03-21T02:47:59;28.65;;;22.27;;
28174;SDS011;59417;44.788;10.334;2023-03-21T02:50:31;30.17;;;22.63;;
28174;SDS011;59417;44.788;10.334;2023-03-21T02:53:02;32.47;;;23.15;;
28174;SDS011;59417;44.788;10.334;2023-03-21T02:55:32;31.35;;;23.50;;
28174;SDS011;59417;44.788;10.334;2023-03-21T02:58:02;30.90;;;22.55;;
28174;SDS011;59417;44.788;10.334;2023-03-21T03:00:31;29.35;;;21.25;;
28174;SDS011;59417;44.788;10.334;2023-03-21T03:02:59;30.60;;;21.53;;
28174;SDS011;59417;44.788;10.334;2023-03-21T03:05:26;27.70;;;21.23;;
28174;SDS011;59417;44.788;10.334;2023-03-21T03:16:13;32.55;;;22.35;;
28174;SDS011;59417;44.788;10.334;2023-03-21T03:18:57;34.78;;;23.40;;
28174;SDS011;59417;44.788;10.334;2023-03-21T03:29:14;31.95;;;23.52;;
28174;SDS011;59417;44.788;10.334;2023-03-21T03:31:52;32.17;;;22.40;;
28174;SDS011;59417;44.788;10.334;2023-03-21T03:34:21;31.52;;;22.92;;
28174;SDS011;59417;44.788;10.334;2023-03-21T03:36:53;31.45;;;23.55;;
28174;SDS011;59417;44.788;10.334;2023-03-21T03:39:35;28.25;;;21.85;;
28174;SDS011;59417;44.788;10.334;2023-03-21T03:42:08;31.77;;;22.63;;
28174;SDS011;59417;44.788;10.334;2023-03-21T03:44:41;30.23;;;23.35;;
28174;SDS011;59417;44.788;10.334;2023-03-21T03:47:09;35.55;;;23.05;;
28174;SDS011;59417;44.788;10.334;2023-03-21T03:49:45;29.60;;;21.88;;
28174;SDS011;59417;44.788;10.334;2023-03-21T03:52:23;32.88;;;24.00;;
28174;SDS011;59417;44.788;10.334;2023-03-21T03:55:09;36.47;;;23.20;;
28174;SDS011;59417;44.788;10.334;2023-03-21T03:57:41;29.00;;;22.48;;
28174;SDS011;59417;44.788;10.334;2023-03-21T04:00:09;29.52;;;22.50;;
28174;SDS011;59417;44.788;10.334;2023-03-21T04:02:43;32.15;;;22.38;;
28174;SDS011;59417;44.788;10.334;2023-03-21T04:05:10;31.73;;;21.25;;
28174;SDS011;59417;44.788;10.334;2023-03-21T04:07:37;28.63;;;21.45;;
28174;SDS011;59417;44.788;10.334;2023-03-21T04:10:03;29.52;;;22.40;;
28174;SDS011;59417;44.788;10.334;2023-03-21T04:12:32;25.48;;;21.48;;
28174;SDS011;59417;44.788;10.334;2023-03-21T04:15:16;27.75;;;21.85;;
28174;SDS011;59417;44.788;10.334;2023-03-21T04:17:48;30.33;;;22.38;;
28174;SDS011;59417;44.788;10.334;2023-03-21T04:20:14;34.40;;;22.45;;
28174;SDS011;59417;44.788;10.334;2023-03-21T04:22:40;28.15;;;22.00;;
28174;SDS011;59417;44.788;10.334;2023-03-21T04:25:06;31.00;;;21.67;;
28174;SDS011;59417;44.788;10.334;2023-03-21T04:27:33;29.30;;;21.98;;
28174;SDS011;59417;44.788;10.334;2023-03-21T04:30:25;30.75;;;22.13;;
28174;SDS011;59417;44.788;10.334;2023-03-21T04:32:59;29.30;;;21.95;;
28174;SDS011;59417;44.788;10.334;2023-03-21T04:35:28;35.63;;;23.05;;
28174;SDS011;59417;44.788;10.334;2023-03-21T04:37:54;30.73;;;21.77;;
28174;SDS011;59417;44.788;10.334;2023-03-21T04:40:21;32.08;;;22.55;;
28174;SDS011;59417;44.788;10.334;2023-03-21T04:42:48;29.60;;;21.70;;
28174;SDS011;59417;44.788;10.334;2023-03-21T04:45:14;29.52;;;21.98;;
28174;SDS011;59417;44.788;10.334;2023-03-21T04:47:43;29.08;;;21.70;;
28174;SDS011;59417;44.788;10.334;2023-03-21T04:50:09;29.15;;;21.50;;
28174;SDS011;59417;44.788;10.334;2023-03-21T04:52:38;27.08;;;21.77;;
28174;SDS011;59417;44.788;10.334;2023-03-21T04:55:04;33.35;;;22.13;;
28174;SDS011;59417;44.788;10.334;2023-03-21T04:57:35;28.50;;;22.17;;
28174;SDS011;59417;44.788;10.334;2023-03-21T05:00:03;24.98;;;20.70;;
28174;SDS011;59417;44.788;10.334;2023-03-21T05:02:35;29.08;;;21.17;;
28174;SDS011;59417;44.788;10.334;2023-03-21T05:05:02;33.15;;;22.73;;
28174;SDS011;59417;44.788;10.334;2023-03-21T05:07:28;28.27;;;21.35;;
28174;SDS011;59417;44.788;10.334;2023-03-21T05:09:56;31.20;;;21.58;;
28174;SDS011;59417;44.788;10.334;2023-03-21T05:12:21;29.33;;;21.90;;
28174;SDS011;59417;44.788;10.334;2023-03-21T05:14:47;37.20;;;23.30;;
28174;SDS011;59417;44.788;10.334;2023-03-21T05:17:13;29.58;;;22.33;;
28174;SDS011;59417;44.788;10.334;2023-03-21T05:19:49;28.55;;;21.90;;
28174;SDS011;59417;44.788;10.334;2023-03-21T05:22:17;35.58;;;23.13;;
28174;SDS011;59417;44.788;10.334;2023-03-21T05:24:45;30.45;;;23.02;;
28174;SDS011;59417;44.788;10.334;2023-03-21T05:27:27;31.70;;;21.25;;
28174;SDS011;59417;44.788;10.334;2023-03-21T05:30:06;28.88;;;22.23;;
28174;SDS011;59417;44.788;10.334;2023-03-21T05:32:35;26.10;;;21.20;;
28174;SDS011;59417;44.788;10.334;2023-03-21T05:35:01;31.13;;;22.95;;
28174;SDS011;59417;44.788;10.334;2023-03-21T05:37:27;30.30;;;21.75;;
28174;SDS011;59417;44.788;10.334;2023-03-21T05:39:54;32.60;;;22.88;;
28174;SDS011;59417;44.788;10.334;2023-03-21T05:42:27;35.42;;;23.42;;
28174;SDS011;59417;44.788;10.334;2023-03-21T05:44:53;30.52;;;22.67;;
28174;SDS011;59417;44.788;10.334;2023-03-21T05:47:24;31.38;;;22.50;;
28174;SDS011;59417;44.788;10.334;2023-03-21T05:49:51;32.67;;;23.45;;
28174;SDS011;59417;44.788;10.334;2023-03-21T05:52:18;29.10;;;22.30;;
28174;SDS011;59417;44.788;10.334;2023-03-21T05:54:44;27.55;;;21.25;;
28174;SDS011;59417;44.788;10.334;2023-03-21T05:57:10;29.88;;;22.38;;
28174;SDS011;59417;44.788;10.334;2023-03-21T05:59:56;27.70;;;20.63;;
28174;SDS011;59417;44.788;10.334;2023-03-21T06:02:22;33.00;;;22.08;;
28174;SDS011;59417;44.788;10.334;2023-03-21T06:04:48;29.17;;;21.45;;
28174;SDS011;59417;44.788;10.334;2023-03-21T06:07:15;31.77;;;22.42;;
28174;SDS011;59417;44.788;10.334;2023-03-21T06:09:41;33.85;;;22.00;;
28174;SDS011;59417;44.788;10.334;2023-03-21T06:12:07;31.48;;;22.77;;
28174;SDS011;59417;44.788;10.334;2023-03-21T06:15:02;32.50;;;23.15;;
28174;SDS011;59417;44.788;10.334;2023-03-21T06:17:36;31.05;;;22.50;;
28174;SDS011;59417;44.788;10.334;2023-03-21T06:22:44;28.70;;;20.75;;
28174;SDS011;59417;44.788;10.334;2023-03-21T06:25:10;28.40;;;20.60;;
28174;SDS011;59417;44.788;10.334;2023-03-21T06:27:36;35.55;;;21.52;;
28174;SDS011;59417;44.788;10.334;2023-03-21T06:30:04;27.60;;;20.83;;
28174;SDS011;59417;44.788;10.334;2023-03-21T06:32:37;30.23;;;21.10;;
28174;SDS011;59417;44.788;10.334;2023-03-21T06:35:10;25.52;;;19.77;;
28174;SDS011;59417;44.788;10.334;2023-03-21T06:37:36;27.27;;;19.92;;
28174;SDS011;59417;44.788;10.334;2023-03-21T06:40:03;28.92;;;20.75;;
28174;SDS011;59417;44.788;10.334;2023-03-21T06:42:30;29.80;;;20.20;;
28174;SDS011;59417;44.788;10.334;2023-03-21T06:45:01;32.38;;;20.80;;
28174;SDS011;59417;44.788;10.334;2023-03-21T06:47:28;26.95;;;20.92;;
28174;SDS011;59417;44.788;10.334;2023-03-21T06:49:54;30.48;;;21.02;;
28174;SDS011;59417;44.788;10.334;2023-03-21T06:52:20;30.23;;;22.02;;
28174;SDS011;59417;44.788;10.334;2023-03-21T06:54:46;28.60;;;19.83;;
28174;SDS011;59417;44.788;10.334;2023-03-21T06:57:14;26.30;;;20.35;;
28174;SDS011;59417;44.788;10.334;2023-03-21T06:59:42;30.15;;;20.92;;
28174;SDS011;59417;44.788;10.334;2023-03-21T07:02:13;27.10;;;20.17;;
28174;SDS011;59417;44.788;10.334;2023-03-21T07:04:59;27.63;;;19.60;;
28174;SDS011;59417;44.788;10.334;2023-03-21T07:07:27;31.52;;;19.60;;
28174;SDS011;59417;44.788;10.334;2023-03-21T07:09:54;33.67;;;21.60;;
28174;SDS011;59417;44.788;10.334;2023-03-21T07:12:21;29.08;;;19.92;;
28174;SDS011;59417;44.788;10.334;2023-03-21T07:15:06;27.17;;;19.45;;
28174;SDS011;59417;44.788;10.334;2023-03-21T07:17:33;25.00;;;18.75;;
28174;SDS011;59417;44.788;10.334;2023-03-21T07:19:59;30.85;;;21.15;;
28174;SDS011;59417;44.788;10.334;2023-03-21T07:22:24;25.63;;;17.95;;
28174;SDS011;59417;44.788;10.334;2023-03-21T07:24:50;24.58;;;18.63;;
28174;SDS011;59417;44.788;10.334;2023-03-21T07:27:17;29.73;;;18.15;;
28174;SDS011;59417;44.788;10.334;2023-03-21T07:29:44;25.08;;;18.05;;
28174;SDS011;59417;44.788;10.334;2023-03-21T07:32:11;25.20;;;18.95;;
28174;SDS011;59417;44.788;10.334;2023-03-21T07:34:37;28.27;;;18.70;;
28174;SDS011;59417;44.788;10.334;2023-03-21T07:37:03;28.23;;;19.38;;
28174;SDS011;59417;44.788;10.334;2023-03-21T07:39:31;29.48;;;19.67;;
28174;SDS011;59417;44.788;10.334;2023-03-21T07:41:58;28.10;;;19.88;;
28174;SDS011;59417;44.788;10.334;2023-03-21T07:44:30;29.48;;;20.65;;
28174;SDS011;59417;44.788;10.334;2023-03-21T07:47:01;27.67;;;19.98;;
28174;SDS011;59417;44.788;10.334;2023-03-21T07:49:27;26.17;;;20.30;;
28174;SDS011;59417;44.788;10.334;2023-03-21T07:51:53;27.27;;;20.70;;
28174;SDS011;59417;44.788;10.334;2023-03-21T07:54:18;30.63;;;20.17;;
28174;SDS011;59417;44.788;10.334;2023-03-21T07:56:46;32.47;;;21.00;;
28174;SDS011;59417;44.788;10.334;2023-03-21T07:59:12;26.95;;;19.90;;
28174;SDS011;59417;44.788;10.334;2023-03-21T08:01:38;29.75;;;19.98;;
28174;SDS011;59417;44.788;10.334;2023-03-21T08:04:03;27.30;;;20.10;;
28174;SDS011;59417;44.788;10.334;2023-03-21T08:06:29;30.45;;;21.15;;
28174;SDS011;59417;44.788;10.334;2023-03-21T08:08:57;26.98;;;20.77;;
28174;SDS011;59417;44.788;10.334;2023-03-21T08:11:22;24.88;;;19.63;;
28174;SDS011;59417;44.788;10.334;2023-03-21T08:13:48;31.75;;;20.30;;
28174;SDS011;59417;44.788;10.334;2023-03-21T08:16:15;26.27;;;19.85;;
28174;SDS011;59417;44.788;10.334;2023-03-21T08:18:41;28.80;;;20.38;;
28174;SDS011;59417;44.788;10.334;2023-03-21T08:21:07;26.50;;;19.85;;
28174;SDS011;59417;44.788;10.334;2023-03-21T08:23:33;29.65;;;20.70;;
28174;SDS011;59417;44.788;10.334;2023-03-21T08:25:59;32.83;;;21.13;;
28174;SDS011;59417;44.788;10.334;2023-03-21T08:28:25;29.70;;;22.02;;
28174;SDS011;59417;44.788;10.334;2023-03-21T08:30:51;29.23;;;22.27;;
28174;SDS011;59417;44.788;10.334;2023-03-21T08:33:17;36.70;;;25.65;;
28174;SDS011;59417;44.788;10.334;2023-03-21T08:35:43;33.63;;;24.77;;
28174;SDS011;59417;44.788;10.334;2023-03-21T08:38:08;30.13;;;23.67;;
28174;SDS011;59417;44.788;10.334;2023-03-21T08:40:34;34.72;;;25.50;;
28174;SDS011;59417;44.788;10.334;2023-03-21T08:43:00;34.33;;;24.63;;
28174;SDS011;59417;44.788;10.334;2023-03-21T08:45:26;33.22;;;24.17;;
28174;SDS011;59417;44.788;10.334;2023-03-21T08:47:53;36.35;;;25.58;;
28174;SDS011;59417;44.788;10.334;2023-03-21T08:50:19;37.05;;;25.55;;
28174;SDS011;59417;44.788;10.334;2023-03-21T08:52:47;34.40;;;25.50;;
28174;SDS011;59417;44.788;10.334;2023-03-21T08:55:14;32.47;;;25.10;;
28174;SDS011;59417;44.788;10.334;2023-03-21T08:57:41;37.30;;;26.30;;
28174;SDS011;59417;44.788;10.334;2023-03-21T09:00:08;34.15;;;24.73;;
28174;SDS011;59417;44.788;10.334;2023-03-21T09:02:42;39.00;;;27.48;;
28174;SDS011;59417;44.788;10.334;2023-03-21T09:05:09;37.20;;;27.08;;
28174;SDS011;59417;44.788;10.334;2023-03-21T09:07:39;40.03;;;27.08;;
28174;SDS011;59417;44.788;10.334;2023-03-21T09:10:06;42.83;;;27.60;;
28174;SDS011;59417;44.788;10.334;2023-03-21T09:15:01;36.20;;;27.00;;
28174;SDS011;59417;44.788;10.334;2023-03-21T09:17:27;39.30;;;29.52;;
28174;SDS011;59417;44.788;10.334;2023-03-21T09:19:53;46.45;;;29.23;;
28174;SDS011;59417;44.788;10.334;2023-03-21T09:22:21;39.70;;;30.00;;
28174;SDS011;59417;44.788;10.334;2023-03-21T09:24:48;36.58;;;29.33;;
28174;SDS011;59417;44.788;10.334;2023-03-21T09:27:17;44.45;;;29.30;;
28174;SDS011;59417;44.788;10.334;2023-03-21T09:29:50;39.33;;;28.98;;
28174;SDS011;59417;44.788;10.334;2023-03-21T09:32:16;38.07;;;29.67;;
28174;SDS011;59417;44.788;10.334;2023-03-21T09:34:42;42.97;;;30.35;;
28174;SDS011;59417;44.788;10.334;2023-03-21T09:37:09;39.20;;;29.15;;
28174;SDS011;59417;44.788;10.334;2023-03-21T09:39:35;43.03;;;31.73;;
28174;SDS011;59417;44.788;10.334;2023-03-21T09:42:04;47.92;;;32.70;;
28174;SDS011;59417;44.788;10.334;2023-03-21T09:47:27;49.38;;;34.42;;
28174;SDS011;59417;44.788;10.334;2023-03-21T09:55:19;48.40;;;34.13;;
28174;SDS011;59417;44.788;10.334;2023-03-21T09:57:51;50.85;;;32.10;;
28174;SDS011;59417;44.788;10.334;2023-03-21T10:00:25;45.35;;;34.10;;
28174;SDS011;59417;44.788;10.334;2023-03-21T10:02:55;43.75;;;33.45;;
28174;SDS011;59417;44.788;10.334;2023-03-21T10:05:31;49.15;;;34.75;;
28174;SDS011;59417;44.788;10.334;2023-03-21T10:08:13;47.38;;;36.60;;
28174;SDS011;59417;44.788;10.334;2023-03-21T10:10:50;48.45;;;35.05;;
28174;SDS011;59417;44.788;10.334;2023-03-21T10:13:24;47.13;;;33.90;;
28174;SDS011;59417;44.788;10.334;2023-03-21T10:16:05;42.08;;;31.88;;
28174;SDS011;59417;44.788;10.334;2023-03-21T10:18:38;49.50;;;34.63;;
28174;SDS011;59417;44.788;10.334;2023-03-21T10:21:07;52.33;;;36.08;;
28174;SDS011;59417;44.788;10.334;2023-03-21T10:23:40;44.58;;;33.60;;
28174;SDS011;59417;44.788;10.334;2023-03-21T10:26:06;46.55;;;36.30;;
28174;SDS011;59417;44.788;10.334;2023-03-21T10:28:34;47.03;;;35.50;;
28174;SDS011;59417;44.788;10.334;2023-03-21T10:31:03;55.78;;;35.45;;
28174;SDS011;59417;44.788;10.334;2023-03-21T10:33:35;47.63;;;35.72;;
28174;SDS011;59417;44.788;10.334;2023-03-21T10:36:07;47.20;;;35.80;;
28174;SDS011;59417;44.788;10.334;2023-03-21T10:38:36;45.70;;;33.60;;
28174;SDS011;59417;44.788;10.334;2023-03-21T10:41:08;42.13;;;30.45;;
28174;SDS011;59417;44.788;10.334;2023-03-21T10:43:36;40.28;;;28.63;;
28174;SDS011;59417;44.788;10.334;2023-03-21T10:46:07;41.75;;;28.17;;
28174;SDS011;59417;44.788;10.334;2023-03-21T10:48:37;44.80;;;30.88;;
28174;SDS011;59417;44.788;10.334;2023-03-21T10:51:05;40.53;;;29.75;;
28174;SDS011;59417;44.788;10.334;2023-03-21T10:53:55;43.50;;;29.23;;
28174;SDS011;59417;44.788;10.334;2023-03-21T10:56:25;38.00;;;28.77;;
28174;SDS011;59417;44.788;10.334;2023-03-21T10:58:52;37.20;;;28.33;;
28174;SDS011;59417;44.788;10.334;2023-03-21T11:01:41;38.50;;;29.25;;
28174;SDS011;59417;44.788;10.334;2023-03-21T11:04:15;41.80;;;31.42;;
28174;SDS011;59417;44.788;10.334;2023-03-21T11:06:50;40.67;;;30.67;;
28174;SDS011;59417;44.788;10.334;2023-03-21T11:09:20;43.83;;;32.53;;
28174;SDS011;59417;44.788;10.334;2023-03-21T11:12:03;50.10;;;35.13;;
28174;SDS011;59417;44.788;10.334;2023-03-21T11:17:06;40.63;;;29.75;;
28174;SDS011;59417;44.788;10.334;2023-03-21T11:19:45;40.83;;;28.67;;
28174;SDS011;59417;44.788;10.334;2023-03-21T11:22:37;37.85;;;28.23;;
28174;SDS011;59417;44.788;10.334;2023-03-21T11:25:06;41.83;;;28.75;;
28174;SDS011;59417;44.788;10.334;2023-03-21T11:27:36;35.42;;;26.10;;
28174;SDS011;59417;44.788;10.334;2023-03-21T11:32:45;34.63;;;28.58;;
28174;SDS011;59417;44.788;10.334;2023-03-21T11:35:19;36.45;;;27.80;;
28174;SDS011;59417;44.788;10.334;2023-03-21T11:37:52;35.58;;;27.80;;
28174;SDS011;59417;44.788;10.334;2023-03-21T11:40:39;34.53;;;26.50;;
28174;SDS011;59417;44.788;10.334;2023-03-21T11:45:54;34.53;;;24.70;;
28174;SDS011;59417;44.788;10.334;2023-03-21T11:48:25;34.80;;;27.42;;
28174;SDS011;59417;44.788;10.334;2023-03-21T11:50:55;39.42;;;28.27;;
28174;SDS011;59417;44.788;10.334;2023-03-21T11:59:19;27.60;;;21.13;;
28174;SDS011;59417;44.788;10.334;2023-03-21T12:21:04;31.45;;;24.08;;
28174;SDS011;59417;44.788;10.334;2023-03-21T12:26:21;31.75;;;24.50;;
28174;SDS011;59417;44.788;10.334;2023-03-21T12:32:03;29.73;;;22.20;;
28174;SDS011;59417;44.788;10.334;2023-03-21T12:37:27;26.98;;;21.55;;
28174;SDS011;59417;44.788;10.334;2023-03-21T12:45:22;28.92;;;22.55;;
28174;SDS011;59417;44.788;10.334;2023-03-21T12:47:52;29.27;;;23.42;;
28174;SDS011;59417;44.788;10.334;2023-03-21T12:50:24;28.67;;;21.67;;
28174;SDS011;59417;44.788;10.334;2023-03-21T12:52:55;30.00;;;22.13;;
28174;SDS011;59417;44.788;10.334;2023-03-21T12:55:29;27.73;;;22.55;;
28174;SDS011;59417;44.788;10.334;2023-03-21T12:58:10;26.52;;;22.00;;
28174;SDS011;59417;44.788;10.334;2023-03-21T13:00:46;30.48;;;23.08;;
28174;SDS011;59417;44.788;10.334;2023-03-21T13:03:28;31.15;;;22.83;;
28174;SDS011;59417;44.788;10.334;2023-03-21T13:06:01;28.27;;;21.90;;
28174;SDS011;59417;44.788;10.334;2023-03-21T13:08:37;32.25;;;23.55;;
28174;SDS011;59417;44.788;10.334;2023-03-21T13:11:13;36.15;;;22.08;;
28174;SDS011;59417;44.788;10.334;2023-03-21T13:13:57;26.98;;;20.33;;
28174;SDS011;59417;44.788;10.334;2023-03-21T13:16:41;25.63;;;19.85;;
28174;SDS011;59417;44.788;10.334;2023-03-21T13:19:18;27.92;;;20.30;;
28174;SDS011;59417;44.788;10.334;2023-03-21T13:22:14;23.67;;;19.02;;
28174;SDS011;59417;44.788;10.334;2023-03-21T13:24:56;29.92;;;22.83;;
28174;SDS011;59417;44.788;10.334;2023-03-21T13:27:31;25.63;;;19.25;;
28174;SDS011;59417;44.788;10.334;2023-03-21T13:30:06;28.38;;;22.17;;
28174;SDS011;59417;44.788;10.334;2023-03-21T13:32:45;31.25;;;21.50;;
28174;SDS011;59417;44.788;10.334;2023-03-21T13:40:42;26.50;;;20.77;;
28174;SDS011;59417;44.788;10.334;2023-03-21T13:48:58;29.23;;;21.55;;
28174;SDS011;59417;44.788;10.334;2023-03-21T14:04:35;25.75;;;18.48;;
28174;SDS011;59417;44.788;10.334;2023-03-21T14:07:07;25.90;;;18.73;;
28174;SDS011;59417;44.788;10.334;2023-03-21T14:09:39;26.95;;;20.33;;
28174;SDS011;59417;44.788;10.334;2023-03-21T14:13:10;22.58;;;19.52;;
28174;SDS011;59417;44.788;10.334;2023-03-21T14:15:13;26.77;;;18.65;;
28174;SDS011;59417;44.788;10.334;2023-03-21T14:17:57;24.52;;;18.58;;
28174;SDS011;59417;44.788;10.334;2023-03-21T14:20:33;21.17;;;17.45;;
28174;SDS011;59417;44.788;10.334;2023-03-21T14:23:06;23.65;;;17.02;;
28174;SDS011;59417;44.788;10.334;2023-03-21T14:25:33;23.30;;;17.95;;
28174;SDS011;59417;44.788;10.334;2023-03-21T14:28:02;26.02;;;19.83;;
28174;SDS011;59417;44.788;10.334;2023-03-21T14:33:07;26.77;;;19.63;;
28174;SDS011;59417;44.788;10.334;2023-03-21T14:35:51;21.42;;;16.92;;
28174;SDS011;59417;44.788;10.334;2023-03-21T14:40:49;24.50;;;18.23;;
28174;SDS011;59417;44.788;10.334;2023-03-21T14:43:18;20.77;;;16.88;;
28174;SDS011;59417;44.788;10.334;2023-03-21T14:45:55;21.80;;;15.25;;
28174;SDS011;59417;44.788;10.334;2023-03-21T14:48:31;20.75;;;15.52;;
28174;SDS011;59417;44.788;10.334;2023-03-21T14:51:03;20.88;;;16.58;;
28174;SDS011;59417;44.788;10.334;2023-03-21T14:53:31;20.27;;;16.45;;
28174;SDS011;59417;44.788;10.334;2023-03-21T14:56:02;21.90;;;16.00;;
28174;SDS011;59417;44.788;10.334;2023-03-21T14:58:29;22.75;;;17.33;;
28174;SDS011;59417;44.788;10.334;2023-03-21T15:00:56;21.08;;;15.75;;
28174;SDS011;59417;44.788;10.334;2023-03-21T15:03:25;25.55;;;16.80;;
28174;SDS011;59417;44.788;10.334;2023-03-21T15:05:52;20.95;;;16.40;;
28174;SDS011;59417;44.788;10.334;2023-03-21T15:08:20;23.40;;;17.25;;
28174;SDS011;59417;44.788;10.334;2023-03-21T15:13:30;22.90;;;18.45;;
28174;SDS011;59417;44.788;10.334;2023-03-21T15:16:04;25.45;;;17.40;;
28174;SDS011;59417;44.788;10.334;2023-03-21T15:18:31;26.02;;;18.45;;
28174;SDS011;59417;44.788;10.334;2023-03-21T15:21:02;23.60;;;17.60;;
28174;SDS011;59417;44.788;10.334;2023-03-21T15:23:36;22.67;;;17.05;;
28174;SDS011;59417;44.788;10.334;2023-03-21T15:26:16;23.48;;;18.13;;
28174;SDS011;59417;44.788;10.334;2023-03-21T15:28:45;21.77;;;16.45;;
28174;SDS011;59417;44.788;10.334;2023-03-21T15:31:15;23.52;;;16.25;;
28174;SDS011;59417;44.788;10.334;2023-03-21T15:33:49;23.60;;;16.92;;
28174;SDS011;59417;44.788;10.334;2023-03-21T15:36:20;21.10;;;15.80;;
28174;SDS011;59417;44.788;10.334;2023-03-21T15:38:49;24.10;;;14.77;;
28174;SDS011;59417;44.788;10.334;2023-03-21T15:44:10;21.73;;;15.40;;
28174;SDS011;59417;44.788;10.334;2023-03-21T15:46:40;23.58;;;15.15;;
28174;SDS011;59417;44.788;10.334;2023-03-21T15:51:41;19.02;;;14.70;;
28174;SDS011;59417;44.788;10.334;2023-03-21T15:54:11;18.95;;;12.95;;
28174;SDS011;59417;44.788;10.334;2023-03-21T15:56:40;17.65;;;13.30;;
28174;SDS011;59417;44.788;10.334;2023-03-21T15:59:13;22.20;;;14.48;;
28174;SDS011;59417;44.788;10.334;2023-03-21T16:01:44;16.25;;;13.70;;
28174;SDS011;59417;44.788;10.334;2023-03-21T16:06:37;16.15;;;12.20;;
28174;SDS011;59417;44.788;10.334;2023-03-21T16:09:15;18.98;;;13.05;;
28174;SDS011;59417;44.788;10.334;2023-03-21T16:11:48;17.30;;;14.13;;
28174;SDS011;59417;44.788;10.334;2023-03-21T16:14:18;16.23;;;13.60;;
28174;SDS011;59417;44.788;10.334;2023-03-21T16:16:45;19.63;;;14.82;;
28174;SDS011;59417;44.788;10.334;2023-03-21T16:19:13;18.65;;;14.30;;
28174;SDS011;59417;44.788;10.334;2023-03-21T16:21:38;16.60;;;12.60;;
28174;SDS011;59417;44.788;10.334;2023-03-21T16:24:06;17.42;;;14.25;;
28174;SDS011;59417;44.788;10.334;2023-03-21T16:26:33;17.50;;;13.07;;
28174;SDS011;59417;44.788;10.334;2023-03-21T16:29:02;20.60;;;14.55;;
28174;SDS011;59417;44.788;10.334;2023-03-21T16:31:31;18.98;;;14.02;;
28174;SDS011;59417;44.788;10.334;2023-03-21T16:34:00;20.70;;;14.98;;
28174;SDS011;59417;44.788;10.334;2023-03-21T16:36:30;20.02;;;14.10;;
28174;SDS011;59417;44.788;10.334;2023-03-21T16:39:14;19.88;;;14.10;;
28174;SDS011;59417;44.788;10.334;2023-03-21T16:41:42;20.45;;;14.32;;
28174;SDS011;59417;44.788;10.334;2023-03-21T16:44:08;21.13;;;14.70;;
28174;SDS011;59417;44.788;10.334;2023-03-21T16:46:34;22.10;;;15.45;;
28174;SDS011;59417;44.788;10.334;2023-03-21T16:49:00;19.83;;;14.40;;